Time;durP1;ratioP1;P1;durP2;ratioP2;P2;SDS_P1;SDS_P2;PMS_P1;PMS_P2;Temp;Humidity;BMP_temperature;BMP_pressure;BME280_temperature;BME280_humidity;BME280_pressure;Samples;Min_cycle;Max_cycle;Signal;HPM_P1;HPM_P2
2023/10/13 00:00:35;;;;;;;;;10.00;8.33;;;;;23.59;93.88;100598.50;6221449;22;45289;-85
2023/10/13 00:03:47;;;;;;;;;8.00;8.00;;;;;23.62;92.73;100602.00;6221241;22;45226;-88
2023/10/13 00:06:15;;;;;;;;;9.00;8.33;;;;;23.35;93.72;100596.78;6247065;22;45427;-87
2023/10/13 00:08:41;;;;;;;;;9.67;8.00;;;;;23.35;93.83;100590.47;6249238;22;45338;-86
2023/10/13 00:11:09;;;;;;;;;9.33;9.00;;;;;23.29;93.79;100590.69;6222284;22;45245;-86
2023/10/13 00:13:50;;;;;;;;;15.00;11.33;;;;;23.29;93.76;100602.47;6222301;22;45406;-87
2023/10/13 00:16:21;;;;;;;;;14.00;10.67;;;;;23.28;93.70;100597.09;6221447;22;47264;-86
2023/10/13 00:18:48;;;;;;;;;11.33;10.00;;;;;23.24;93.56;100588.19;6248744;22;45346;-86
2023/10/13 00:21:14;;;;;;;;;8.67;7.67;;;;;23.21;93.74;100582.00;6249948;22;45371;-87
2023/10/13 00:23:53;;;;;;;;;11.00;10.67;;;;;23.43;93.63;100587.41;6248792;22;45331;-87
2023/10/13 00:26:35;;;;;;;;;9.00;8.33;;;;;23.29;94.14;100577.13;6249239;22;45442;-88
2023/10/13 00:29:15;;;;;;;;;9.00;9.00;;;;;23.26;94.43;100578.16;6222274;22;45321;-87
2023/10/13 00:31:42;;;;;;;;;9.67;9.00;;;;;23.17;94.61;100575.81;6252240;22;44812;-86
2023/10/13 00:34:28;;;;;;;;;10.00;10.00;;;;;23.36;94.24;100582.25;6251748;22;45433;-87
2023/10/13 00:39:44;;;;;;;;;12.67;11.33;;;;;23.26;94.10;100580.84;6248947;22;45417;-88
2023/10/13 00:42:51;;;;;;;;;10.00;8.33;;;;;23.27;93.65;100571.78;6223582;22;45269;-87
2023/10/13 00:45:05;;;;;;;;;12.00;10.33;;;;;23.23;93.87;100567.44;6243484;22;45423;-86
2023/10/13 00:50:04;;;;;;;;;8.33;8.33;;;;;23.31;93.80;100554.44;6251571;22;45299;-88
2023/10/13 00:52:35;;;;;;;;;10.33;8.67;;;;;23.42;94.20;100555.81;6224050;22;45481;-84
2023/10/13 00:55:01;;;;;;;;;10.00;9.00;;;;;23.22;94.07;100557.50;6252520;22;45323;-87
2023/10/13 00:57:27;;;;;;;;;7.33;7.33;;;;;23.22;94.57;100554.81;6223913;22;47080;-86
2023/10/13 00:59:54;;;;;;;;;8.00;8.00;;;;;23.13;94.86;100547.06;6224892;22;45288;-86
2023/10/13 01:05:04;;;;;;;;;10.00;8.33;;;;;23.15;95.34;100545.16;6249006;22;45291;-83
2023/10/13 01:07:30;;;;;;;;;13.33;11.00;;;;;23.08;94.63;100538.22;6246286;22;48302;-83
2023/10/13 01:09:55;;;;;;;;;10.00;10.00;;;;;23.02;94.41;100525.78;6247350;22;45308;-84
2023/10/13 01:12:24;;;;;;;;;10.33;10.33;;;;;23.04;95.63;100533.84;6221943;22;45395;-84
2023/10/13 01:14:49;;;;;;;;;11.33;9.00;;;;;22.90;95.65;100510.84;6222399;22;45586;-83
2023/10/13 01:17:15;;;;;;;;;11.00;10.33;;;;;22.97;96.50;100525.94;6218699;22;47873;-84
2023/10/13 01:19:45;;;;;;;;;13.00;12.33;;;;;22.94;96.63;100534.19;6247562;22;45296;-84
2023/10/13 01:22:11;;;;;;;;;9.33;9.33;;;;;22.90;97.07;100523.53;6220658;22;45379;-84
2023/10/13 01:24:37;;;;;;;;;10.67;9.67;;;;;22.88;96.28;100526.31;6245425;22;44852;-83
2023/10/13 01:27:49;;;;;;;;;12.33;12.33;;;;;23.12;96.50;100518.16;6220827;22;46590;-84
2023/10/13 01:30:16;;;;;;;;;10.00;9.33;;;;;22.86;96.95;100519.19;6222180;22;45425;-84
2023/10/13 01:32:45;;;;;;;;;11.33;9.33;;;;;22.82;97.01;100521.13;6249070;22;45366;-84
2023/10/13 01:35:11;;;;;;;;;10.00;10.00;;;;;22.81;96.98;100511.25;6222107;22;45434;-84
2023/10/13 01:37:42;;;;;;;;;12.33;12.00;;;;;22.76;96.88;100488.84;6218669;22;47219;-83
2023/10/13 01:40:08;;;;;;;;;8.67;8.67;;;;;22.84;97.09;100499.38;6218766;22;45730;-83
2023/10/13 01:42:36;;;;;;;;;11.33;10.00;;;;;22.85;96.98;100493.91;6224255;22;45420;-84
2023/10/13 01:45:05;;;;;;;;;15.00;12.00;;;;;22.89;96.79;100502.81;6222039;22;45317;-84
2023/10/13 01:47:33;;;;;;;;;11.33;9.67;;;;;23.00;97.21;100502.34;6221782;22;48171;-83
2023/10/13 01:50:27;;;;;;;;;7.67;7.67;;;;;23.04;96.66;100487.75;6249675;22;45873;-83
2023/10/13 01:52:45;;;;;;;;;13.67;11.67;;;;;22.94;96.64;100484.50;6248078;22;45441;-83
2023/10/13 01:55:11;;;;;;;;;12.00;10.00;;;;;22.99;96.33;100474.34;6221913;22;45262;-84
2023/10/13 01:57:37;;;;;;;;;11.67;9.67;;;;;23.03;95.68;100477.88;6248845;22;46509;-84
2023/10/13 02:00:11;;;;;;;;;10.00;8.67;;;;;23.07;95.89;100472.25;6224526;22;45238;-84
2023/10/13 02:02:44;;;;;;;;;8.00;8.00;;;;;23.06;95.01;100458.72;6224496;22;45361;-84
2023/10/13 02:05:10;;;;;;;;;14.33;13.33;;;;;23.08;94.80;100462.25;6221750;22;45257;-84
2023/10/13 02:07:38;;;;;;;;;10.00;8.00;;;;;23.25;94.61;100454.28;6196540;22;46944;-83
2023/10/13 02:10:06;;;;;;;;;12.00;10.00;;;;;23.08;94.38;100451.41;6224093;22;45301;-83
2023/10/13 02:12:44;;;;;;;;;7.67;7.67;;;;;23.15;93.98;100447.50;6253804;22;45358;-84
2023/10/13 02:15:25;;;;;;;;;7.00;7.00;;;;;23.27;93.81;100430.69;6224933;22;45595;-83
2023/10/13 02:17:54;;;;;;;;;10.67;9.00;;;;;23.14;93.65;100429.44;6222223;22;46893;-84
2023/10/13 02:20:22;;;;;;;;;12.33;11.00;;;;;23.05;93.90;100419.00;6249976;22;45327;-84
2023/10/13 02:22:51;;;;;;;;;12.33;10.67;;;;;23.06;93.53;100418.03;6247684;22;45661;-83
2023/10/13 02:25:35;;;;;;;;;10.33;9.00;;;;;23.18;93.83;100414.81;6222698;22;45340;-84
2023/10/13 02:28:08;;;;;;;;;11.33;10.67;;;;;23.15;94.06;100410.41;6228406;22;45405;-84
2023/10/13 02:30:38;;;;;;;;;9.33;9.00;;;;;23.13;93.85;100406.00;6251040;22;44960;-83
2023/10/13 02:33:05;;;;;;;;;12.67;9.00;;;;;22.96;93.86;100404.84;6244905;22;45342;-84
2023/10/13 02:35:41;;;;;;;;;14.00;12.00;;;;;22.93;94.01;100398.69;6245508;22;45413;-82
2023/10/13 02:38:11;;;;;;;;;11.33;11.33;;;;;22.94;93.65;100406.72;6216764;22;47885;-84
2023/10/13 02:40:44;;;;;;;;;10.00;8.67;;;;;23.10;93.54;100406.13;6244904;22;45374;-85
2023/10/13 02:43:10;;;;;;;;;9.33;9.33;;;;;22.88;93.52;100401.56;6218644;22;45406;-84
2023/10/13 02:45:36;;;;;;;;;13.33;11.33;;;;;22.88;93.30;100401.56;6246022;22;45449;-83
2023/10/13 02:48:12;;;;;;;;;11.00;11.00;;;;;22.97;93.30;100412.03;6220320;22;46896;-84
2023/10/13 02:50:45;;;;;;;;;9.00;8.00;;;;;23.02;93.25;100413.69;6246070;22;44934;-84
2023/10/13 02:53:13;;;;;;;;;11.00;11.00;;;;;22.90;93.30;100410.50;6220985;22;45597;-84
2023/10/13 02:56:04;;;;;;;;;11.00;10.67;;;;;23.11;92.64;100413.31;6248016;22;45445;-84
2023/10/13 02:58:37;;;;;;;;;9.00;9.00;;;;;22.88;92.84;100407.00;6218718;22;47480;-84
2023/10/13 03:01:17;;;;;;;;;10.00;10.00;;;;;23.06;92.88;100415.34;6219194;22;45206;-84
2023/10/13 03:03:59;;;;;;;;;10.67;10.67;;;;;23.09;92.74;100404.38;6247101;22;45413;-84
2023/10/13 03:06:35;;;;;;;;;9.67;8.33;;;;;22.91;92.97;100406.00;6198774;22;45326;-85
2023/10/13 03:09:21;;;;;;;;;12.00;11.67;;;;;23.02;92.51;100389.28;6221722;22;47189;-84
2023/10/13 03:11:48;;;;;;;;;15.00;12.67;;;;;22.99;92.43;100386.69;6222811;22;45839;-84
2023/10/13 03:14:24;;;;;;;;;10.33;10.33;;;;;22.93;92.59;100380.56;6220994;22;44821;-84
2023/10/13 03:16:52;;;;;;;;;8.00;6.33;;;;;22.87;92.32;100375.41;6224598;22;45338;-84
2023/10/13 03:19:19;;;;;;;;;9.33;8.33;;;;;22.80;93.09;100365.75;6247361;22;45431;-84
2023/10/13 03:21:46;;;;;;;;;11.00;9.67;;;;;22.77;93.11;100363.19;6219474;22;45439;-84
2023/10/13 03:24:35;;;;;;;;;13.00;12.33;;;;;22.84;92.98;100359.25;6247326;22;44720;-84
2023/10/13 03:27:17;;;;;;;;;15.33;12.67;;;;;22.70;93.49;100362.59;6221555;22;45336;-83
2023/10/13 03:29:54;;;;;;;;;11.00;10.00;;;;;22.80;93.44;100352.19;6219676;22;47073;-84
2023/10/13 03:32:20;;;;;;;;;11.00;9.67;;;;;22.74;93.61;100336.19;6248010;22;45373;-84
2023/10/13 03:37:42;;;;;;;;;10.67;10.00;;;;;22.63;94.37;100342.09;6249684;22;45449;-84
2023/10/13 03:45:47;;;;;;;;;13.00;11.33;;;;;22.75;94.06;100329.84;6246423;22;45422;-84
2023/10/13 03:51:01;;;;;;;;;16.33;15.00;;;;;22.62;92.99;100325.88;6239607;22;45278;-84
2023/10/13 03:53:27;;;;;;;;;15.67;15.67;;;;;22.61;92.28;100321.44;6243746;22;45530;-84
2023/10/13 03:56:07;;;;;;;;;14.67;13.33;;;;;22.67;91.58;100319.34;6247212;22;45316;-84
2023/10/13 03:58:45;;;;;;;;;11.33;11.33;;;;;22.81;91.13;100316.03;6220164;22;45316;-83
2023/10/13 04:01:14;;;;;;;;;14.67;11.67;;;;;22.68;90.48;100321.09;6245216;22;45505;-84
2023/10/13 04:03:56;;;;;;;;;14.00;13.67;;;;;22.69;90.03;100313.84;6220272;22;45339;-84
2023/10/13 04:17:14;;;;;;;;;15.00;14.33;;;;;22.72;85.32;100275.75;6247449;22;44916;-84
2023/10/13 04:36:13;;;;;;;;;11.67;10.67;;;;;23.02;82.66;100267.25;6248268;22;45364;-83
2023/10/13 04:38:59;;;;;;;;;12.67;12.00;;;;;22.79;82.10;100250.16;6220993;22;45423;-84
2023/10/13 04:41:36;;;;;;;;;10.33;10.33;;;;;22.94;81.86;100249.44;6219828;22;45508;-84
2023/10/13 04:44:23;;;;;;;;;15.00;13.33;;;;;22.79;81.90;100244.72;6223516;22;46477;-85
2023/10/13 04:49:28;;;;;;;;;13.67;11.67;;;;;23.07;80.34;100243.53;6249011;22;44852;-83
2023/10/13 04:54:45;;;;;;;;;10.67;10.67;;;;;22.87;79.61;100237.13;6246067;22;46009;-84
2023/10/13 04:57:25;;;;;;;;;12.67;10.33;;;;;22.97;79.65;100233.03;6199220;22;45402;-84
2023/10/13 05:02:43;;;;;;;;;13.00;11.67;;;;;23.09;78.25;100214.50;6249195;22;45392;-83
2023/10/13 05:51:43;;;;;;;;;16.33;14.67;;;;;23.09;75.42;100176.53;6249285;22;45341;-86
2023/10/13 06:33:11;;;;;;;;;21.67;20.67;;;;;23.13;74.17;100189.84;6252121;22;45209;-85
2023/10/13 06:35:38;;;;;;;;;17.00;14.67;;;;;23.03;72.98;100187.66;6222564;22;45496;-83
2023/10/13 06:38:09;;;;;;;;;19.00;15.00;;;;;23.08;72.54;100193.72;6222794;22;45392;-84
2023/10/13 06:40:42;;;;;;;;;16.00;16.00;;;;;23.25;72.44;100196.53;6217237;22;45669;-84
2023/10/13 06:43:16;;;;;;;;;14.67;13.67;;;;;23.13;72.13;100191.69;6247903;22;45472;-83
2023/10/13 06:46:07;;;;;;;;;17.67;14.33;;;;;23.34;71.68;100190.66;6224292;22;44829;-86
2023/10/13 06:48:34;;;;;;;;;19.00;17.67;;;;;23.10;71.97;100172.84;6229857;22;44835;-84
2023/10/13 06:51:17;;;;;;;;;17.00;15.67;;;;;23.15;71.73;100149.09;6224472;22;45321;-84
2023/10/13 06:54:12;;;;;;;;;16.00;16.00;;;;;23.29;71.25;100157.47;6229051;22;47262;-85
2023/10/13 07:00:07;;;;;;;;;16.00;15.00;;;;;23.30;69.94;100212.59;6266553;22;44922;-84
2023/10/13 07:07:56;;;;;;;;;17.00;16.00;;;;;23.56;69.60;100201.38;6220331;22;45477;-89
2023/10/13 07:11:05;;;;;;;;;17.33;17.33;;;;;23.71;68.39;100207.91;6260030;22;45280;-83
2023/10/13 07:13:52;;;;;;;;;20.33;17.67;;;;;23.70;68.74;100197.13;6252908;22;45343;-83
2023/10/13 07:16:18;;;;;;;;;17.00;17.00;;;;;23.43;68.32;100194.78;6225466;22;47556;-83
2023/10/13 07:18:54;;;;;;;;;15.67;15.67;;;;;23.73;67.08;100206.00;6224473;22;45313;-83
2023/10/13 07:21:31;;;;;;;;;16.67;14.67;;;;;23.55;67.53;100209.56;6225204;22;45286;-83
2023/10/13 07:24:07;;;;;;;;;17.00;16.00;;;;;23.55;66.65;100201.44;6253766;22;45344;-82
2023/10/13 07:29:56;;;;;;;;;17.67;17.67;;;;;23.70;65.16;100162.69;6129122;23;45517;-83
2023/10/13 07:33:09;;;;;;;;;;;;;;;;;;;;;
2023/10/13 07:40:11;;;;;;;;;16.33;15.67;;;;;23.95;65.33;100172.34;6101659;23;45395;-84
2023/10/13 07:42:53;;;;;;;;;18.00;17.00;;;;;24.04;65.51;100196.34;6091662;23;44927;-84
2023/10/13 07:45:39;;;;;;;;;17.67;17.00;;;;;23.80;65.57;100171.28;6097188;23;45291;-84
2023/10/13 07:48:20;;;;;;;;;17.67;15.00;;;;;24.08;65.40;100176.22;6104323;23;45364;-83
2023/10/13 07:57:36;;;;;;;;;15.00;14.00;;;;;24.33;64.52;100210.28;6112392;23;44740;-82
2023/10/13 08:00:46;;;;;;;;;18.67;15.33;;;;;24.27;63.46;100169.81;6104550;23;45451;-82
2023/10/13 08:03:34;;;;;;;;;15.00;13.67;;;;;24.32;63.91;100176.78;6107341;23;46874;-82
2023/10/13 08:09:09;;;;;;;;;18.00;16.33;;;;;24.40;63.23;100168.25;6229607;22;45474;-86
2023/10/13 08:12:11;;;;;;;;;17.33;16.00;;;;;24.62;61.87;100175.28;6202887;22;44776;-83
2023/10/13 08:14:42;;;;;;;;;17.33;16.00;;;;;24.79;62.98;100194.28;6221261;22;45347;-85
2023/10/13 08:32:54;;;;;;;;;19.67;15.33;;;;;25.41;60.36;100178.22;6232398;22;45348;-82
2023/10/13 08:35:54;;;;;;;;;16.33;15.00;;;;;25.18;60.56;100148.66;6213687;22;45014;-84
2023/10/13 08:38:17;;;;;;;;;13.00;13.00;;;;;25.21;59.39;100173.91;6219802;22;45563;-82
2023/10/13 08:41:29;;;;;;;;;15.67;15.33;;;;;25.41;60.03;100169.16;6220171;22;44910;-81
2023/10/13 08:51:31;;;;;;;;;15.67;14.00;;;;;25.82;59.19;100150.44;6038359;23;45035;-83
2023/10/13 08:54:00;;;;;;;;;13.67;12.67;;;;;25.49;58.46;100120.59;6055738;23;45322;-81
2023/10/13 08:56:47;;;;;;;;;13.00;12.67;;;;;25.48;59.08;100136.06;6058788;23;44713;-81
2023/10/13 08:59:33;;;;;;;;;12.00;12.00;;;;;25.53;58.57;100127.59;6052892;23;44795;-80
2023/10/13 09:02:25;;;;;;;;;15.33;15.33;;;;;25.78;58.04;100131.66;6053431;23;45364;-86
2023/10/13 09:05:09;;;;;;;;;15.00;13.00;;;;;25.64;56.78;100124.28;6053701;23;45115;-82
2023/10/13 09:07:48;;;;;;;;;16.00;13.67;;;;;25.91;57.56;100105.44;6051509;23;44920;-81
2023/10/13 09:11:15;;;;;;;;;;;;;;;;;;;;;
2023/10/13 09:14:33;;;;;;;;;;;;;;;;;;;;;
2023/10/13 09:23:44;;;;;;;;;17.00;15.00;;;;;25.98;55.46;100101.41;6203275;22;44797;-81
2023/10/13 09:26:13;;;;;;;;;15.00;14.00;;;;;25.87;56.04;100131.97;6177820;22;46627;-80
2023/10/13 09:29:13;;;;;;;;;10.00;9.33;;;;;25.64;55.89;100086.16;6201968;23;45304;-81
2023/10/13 09:31:45;;;;;;;;;11.00;10.00;;;;;26.06;56.13;100128.19;6204115;22;44741;-79
2023/10/13 09:34:30;;;;;;;;;12.67;10.33;;;;;25.97;55.13;100107.81;6177954;22;44887;-79
2023/10/13 09:42:41;;;;;;;;;14.00;14.00;;;;;26.24;55.60;100094.38;6245844;22;46205;-81
2023/10/13 09:45:27;;;;;;;;;15.00;14.00;;;;;26.54;56.10;100110.66;6268952;22;45082;-82
2023/10/13 09:51:09;;;;;;;;;14.67;12.00;;;;;26.85;54.44;100113.34;6110102;22;45626;-82
2023/10/13 10:13:58;;;;;;;;;15.33;15.33;;;;;27.55;54.11;100091.47;6239310;22;44897;-82
2023/10/13 10:17:00;;;;;;;;;13.33;13.33;;;;;27.47;53.50;100083.81;6211761;22;47203;-82
2023/10/13 10:30:16;;;;;;;;;12.67;12.67;;;;;27.54;52.71;100103.41;6209177;22;44843;-81
2023/10/13 10:32:48;;;;;;;;;16.67;14.67;;;;;27.33;53.39;100098.41;6206885;22;44820;-82
2023/10/13 10:35:53;;;;;;;;;;;;;;;;;;;;;
2023/10/13 10:38:38;;;;;;;;;13.67;12.67;;;;;27.49;51.61;100065.47;6135915;22;46730;-82
2023/10/13 10:41:13;;;;;;;;;12.33;12.33;;;;;27.66;51.61;100091.66;6179555;22;44842;-81
2023/10/13 10:44:02;;;;;;;;;13.00;12.67;;;;;27.45;51.33;100085.78;6178327;22;45202;-81
2023/10/13 10:46:40;;;;;;;;;16.00;16.00;;;;;27.57;52.23;100100.47;6175595;22;45181;-83
2023/10/13 10:54:31;;;;;;;;;13.00;13.00;;;;;27.61;50.69;100054.69;6168271;22;45044;-80
2023/10/13 10:57:17;;;;;;;;;15.00;14.00;;;;;27.55;51.90;100069.63;6132958;23;45391;-83
2023/10/13 10:59:43;;;;;;;;;14.67;13.33;;;;;27.67;51.89;100095.25;6163253;22;46511;-82
2023/10/13 11:02:15;;;;;;;;;16.33;12.33;;;;;27.76;50.66;100104.69;6190721;23;45306;-83
2023/10/13 11:08:12;;;;;;;;;14.67;14.67;;;;;27.81;51.72;100081.50;6197438;22;45528;-81
2023/10/13 11:15:50;;;;;;;;;14.33;13.00;;;;;28.03;51.04;100083.69;6196301;22;45448;-83
2023/10/13 11:18:40;;;;;;;;;19.67;16.00;;;;;28.43;49.86;100080.88;6195502;23;44902;-82
2023/10/13 11:21:17;;;;;;;;;10.67;10.67;;;;;28.28;50.18;100057.38;6170293;23;47832;-84
2023/10/13 11:23:43;;;;;;;;;14.67;13.00;;;;;28.44;51.00;100057.16;6192313;22;45419;-82
2023/10/13 11:26:11;;;;;;;;;12.00;11.67;;;;;28.80;50.13;100045.44;6164253;23;45264;-83
2023/10/13 11:29:10;;;;;;;;;14.00;13.33;;;;;29.04;50.30;100045.47;6205196;23;44908;-83
2023/10/13 11:31:58;;;;;;;;;18.00;14.33;;;;;29.14;50.56;100062.13;6206110;22;45089;-87
2023/10/13 11:42:58;;;;;;;;;13.33;13.33;;;;;29.07;49.26;100034.31;6144197;23;45130;-84
2023/10/13 11:45:31;;;;;;;;;12.33;12.00;;;;;29.13;49.25;100043.97;6137011;23;45458;-82
2023/10/13 11:48:00;;;;;;;;;14.33;12.00;;;;;29.11;49.70;100051.44;6161780;22;44967;-84
2023/10/13 11:50:33;;;;;;;;;14.33;12.33;;;;;29.01;49.77;100039.38;6139658;23;44855;-83
2023/10/13 11:53:00;;;;;;;;;14.33;12.67;;;;;28.93;50.52;100049.03;6138528;23;48085;-79
2023/10/13 11:55:25;;;;;;;;;13.00;11.33;;;;;28.79;49.87;100030.00;6166901;23;44862;-81
2023/10/13 11:58:05;;;;;;;;;12.00;11.67;;;;;28.87;49.54;100045.88;6169519;23;44787;-82
2023/10/13 12:06:18;;;;;;;;;11.00;10.67;;;;;29.12;49.69;100034.88;6160192;23;45767;-83
2023/10/13 12:12:00;;;;;;;;;11.67;11.33;;;;;29.19;49.46;99998.81;6076179;23;44862;-82
2023/10/13 12:14:29;;;;;;;;;13.00;10.33;;;;;29.40;49.42;100016.34;6044173;23;46642;-82
2023/10/13 12:17:22;;;;;;;;;;;;;;;;;;;;;
2023/10/13 12:20:18;;;;;;;;;15.67;15.33;;;;;29.59;48.44;100014.94;6109024;23;68180;-83
2023/10/13 12:23:15;;;;;;;;;13.33;13.33;;;;;29.93;48.97;100013.22;6079737;23;45315;-82
2023/10/13 12:26:19;;;;;;;;;12.33;12.00;;;;;30.09;48.71;100002.78;6093907;23;45313;-84
2023/10/13 12:29:06;;;;;;;;;16.67;15.00;;;;;29.98;47.50;100002.78;5988391;23;45288;-82
2023/10/13 12:31:39;;;;;;;;;14.67;13.67;;;;;29.81;48.18;99973.06;5989785;23;45274;-83
2023/10/13 12:34:14;;;;;;;;;12.00;11.00;;;;;30.05;48.48;99990.31;6023505;23;45358;-85
2023/10/13 12:54:13;;;;;;;;;11.67;10.33;;;;;30.35;47.08;99955.97;6044413;23;45199;-84
2023/10/13 13:00:03;;;;;;;;;10.00;10.00;;;;;30.14;47.20;99952.19;6046301;23;45286;-84
2023/10/13 13:02:31;;;;;;;;;13.00;12.00;;;;;30.13;47.43;99958.69;6042092;23;45338;-84
2023/10/13 13:05:11;;;;;;;;;13.33;11.33;;;;;30.11;46.74;99967.88;6083260;22;44772;-85
2023/10/13 13:08:21;;;;;;;;;13.67;12.00;;;;;30.02;46.88;99954.06;6194437;22;45370;-87
2023/10/13 13:11:12;;;;;;;;;10.67;10.67;;;;;29.87;47.32;99956.13;6200235;22;47256;-85
2023/10/13 13:13:38;;;;;;;;;12.00;12.00;;;;;29.69;47.57;99964.81;6246823;22;45340;-86
2023/10/13 13:16:04;;;;;;;;;9.67;9.33;;;;;29.64;47.81;99972.50;6223665;22;45408;-84
2023/10/13 13:18:29;;;;;;;;;12.67;10.67;;;;;29.60;47.21;99964.66;6222776;22;45230;-84
2023/10/13 13:20:58;;;;;;;;;12.00;12.00;;;;;29.58;47.70;99962.03;6221942;22;46231;-85
2023/10/13 13:23:25;;;;;;;;;15.00;11.00;;;;;29.46;47.69;99941.06;6196814;22;44777;-84
2023/10/13 13:25:56;;;;;;;;;10.00;10.00;;;;;29.62;47.64;99944.34;6221023;22;45419;-87
2023/10/13 13:28:29;;;;;;;;;15.67;11.00;;;;;29.62;48.06;99919.69;6217816;22;45405;-85
2023/10/13 13:30:55;;;;;;;;;8.33;7.67;;;;;29.62;48.06;99946.22;6216473;22;45352;-84
2023/10/13 13:33:25;;;;;;;;;14.00;14.00;;;;;29.57;48.41;99940.22;6223105;22;44797;-84
2023/10/13 13:35:59;;;;;;;;;13.67;10.33;;;;;29.71;47.96;99935.44;6196478;22;44820;-85
2023/10/13 13:38:31;;;;;;;;;13.00;11.33;;;;;29.70;48.21;99938.25;6222019;22;45797;-84
2023/10/13 13:40:58;;;;;;;;;12.33;10.33;;;;;29.36;48.33;99937.28;6222561;22;45296;-84
2023/10/13 13:43:50;;;;;;;;;9.67;8.67;;;;;29.25;48.18;99932.66;6193760;22;45450;-83
2023/10/13 13:46:18;;;;;;;;;13.67;13.33;;;;;29.11;48.38;99923.63;6221236;22;45439;-85
2023/10/13 13:48:51;;;;;;;;;11.67;11.67;;;;;29.02;48.00;99929.75;6197180;22;44900;-85
2023/10/13 13:51:26;;;;;;;;;10.67;10.67;;;;;28.76;48.65;99928.97;6226880;22;45575;-83
2023/10/13 13:53:52;;;;;;;;;13.00;11.00;;;;;28.60;48.82;99921.06;6223110;22;45348;-84
2023/10/13 13:56:19;;;;;;;;;14.00;12.00;;;;;28.58;49.07;99930.34;6225491;22;45418;-85
2023/10/13 13:58:48;;;;;;;;;13.67;11.33;;;;;28.47;49.19;99918.31;6222889;22;44736;-85
2023/10/13 14:01:21;;;;;;;;;14.33;14.33;;;;;28.41;48.30;99921.50;6207849;22;47294;-85
2023/10/13 14:04:02;;;;;;;;;14.67;13.33;;;;;28.41;48.44;99904.22;6230382;22;44705;-85
2023/10/13 14:06:52;;;;;;;;;11.00;11.00;;;;;28.14;49.13;99897.06;6203179;22;44819;-85
2023/10/13 14:09:40;;;;;;;;;12.00;11.33;;;;;28.37;49.98;99909.03;6194812;22;44777;-85
2023/10/13 14:14:57;;;;;;;;;11.67;9.67;;;;;28.17;49.88;99885.88;6233788;22;45321;-86
2023/10/13 14:17:29;;;;;;;;;17.33;14.33;;;;;28.04;49.90;99896.84;6231694;22;44819;-85
2023/10/13 14:19:57;;;;;;;;;15.67;15.67;;;;;28.13;50.48;99906.22;6224491;22;45482;-84
2023/10/13 14:22:27;;;;;;;;;15.33;15.33;;;;;28.20;50.76;99913.00;6197617;22;47138;-85
2023/10/13 14:24:56;;;;;;;;;13.33;13.33;;;;;28.06;50.43;99905.81;6197663;22;45387;-85
2023/10/13 14:27:25;;;;;;;;;13.33;13.00;;;;;28.02;50.52;99887.00;6224268;22;45305;-85
2023/10/13 14:29:56;;;;;;;;;17.67;15.67;;;;;28.05;50.06;99903.19;6223397;22;45292;-86
2023/10/13 14:32:24;;;;;;;;;16.00;12.00;;;;;27.82;50.18;99869.28;6224830;22;46239;-85
2023/10/13 14:34:56;;;;;;;;;13.67;13.67;;;;;27.77;50.59;99879.66;6221789;22;45616;-85
2023/10/13 14:37:30;;;;;;;;;14.67;14.00;;;;;27.82;51.21;99904.81;6197663;22;45205;-85
2023/10/13 14:39:59;;;;;;;;;13.33;12.33;;;;;27.72;50.66;99889.06;6198275;22;44808;-85
2023/10/13 14:42:26;;;;;;;;;14.00;11.67;;;;;27.64;51.15;99866.00;6223083;22;46458;-85
2023/10/13 14:45:48;;;;;;;;;14.67;14.67;;;;;27.90;50.69;99886.03;6193985;22;45281;-84
2023/10/13 14:48:16;;;;;;;;;14.67;14.67;;;;;27.84;51.66;99900.09;6225111;22;45364;-87
2023/10/13 14:50:42;;;;;;;;;14.67;13.67;;;;;27.65;51.44;99885.03;6198732;22;45372;-85
2023/10/13 14:53:08;;;;;;;;;13.00;9.33;;;;;27.54;51.83;99866.66;6222532;22;45324;-83
2023/10/13 14:55:41;;;;;;;;;19.33;14.00;;;;;27.67;51.21;99882.16;6222638;22;45316;-87
2023/10/13 14:58:07;;;;;;;;;18.00;14.67;;;;;27.72;51.45;99886.31;6194513;22;45380;-84
2023/10/13 15:00:34;;;;;;;;;18.00;17.00;;;;;27.76;52.12;99861.53;6224209;22;45416;-85
2023/10/13 15:03:02;;;;;;;;;13.00;12.67;;;;;27.56;51.30;99852.03;6223371;22;45643;-87
2023/10/13 15:05:39;;;;;;;;;;;;;;;;;;;;;
2023/10/13 15:08:09;;;;;;;;;16.33;15.67;;;;;27.71;51.58;99839.97;6223234;22;68076;-87
2023/10/13 15:10:36;;;;;;;;;12.67;11.67;;;;;27.64;51.50;99839.56;6223740;22;45427;-85
2023/10/13 15:13:05;;;;;;;;;16.33;16.00;;;;;27.89;51.41;99848.75;6220612;22;47052;-83
2023/10/13 15:15:32;;;;;;;;;15.67;13.67;;;;;27.68;51.22;99854.75;6215487;22;45670;-84
2023/10/13 15:17:59;;;;;;;;;14.33;13.00;;;;;27.60;51.72;99842.63;6193366;22;45328;-86
2023/10/13 15:20:27;;;;;;;;;14.67;14.67;;;;;27.82;51.83;99852.88;6221639;22;44893;-83
2023/10/13 15:22:59;;;;;;;;;15.00;15.00;;;;;27.69;52.01;99853.78;6193951;22;45536;-86
2023/10/13 15:25:31;;;;;;;;;18.67;18.00;;;;;27.46;52.20;99833.53;6192530;22;45765;-85
2023/10/13 15:28:05;;;;;;;;;17.00;15.67;;;;;27.58;52.44;99833.66;6194172;22;45413;-86
2023/10/13 15:30:55;;;;;;;;;14.67;13.33;;;;;27.71;52.30;99851.81;6220520;22;45474;-84
2023/10/13 15:33:21;;;;;;;;;15.33;15.33;;;;;27.44;51.73;99829.19;6220432;22;46250;-84
2023/10/13 15:35:47;;;;;;;;;15.33;15.00;;;;;27.41;51.74;99810.25;6219992;22;44854;-86
2023/10/13 15:38:14;;;;;;;;;17.00;15.33;;;;;27.55;52.39;99840.19;6187870;22;45342;-84
2023/10/13 15:40:42;;;;;;;;;19.33;16.67;;;;;27.45;52.47;99822.72;6189872;22;45316;-84
2023/10/13 15:43:08;;;;;;;;;17.00;16.00;;;;;27.38;52.61;99815.97;6164023;22;45472;-85
2023/10/13 15:45:39;;;;;;;;;15.33;12.33;;;;;27.50;52.53;99837.81;6194356;22;44922;-86
2023/10/13 15:48:06;;;;;;;;;16.33;15.67;;;;;27.60;52.72;99845.34;6190668;22;44737;-87
2023/10/13 15:50:45;;;;;;;;;10.00;7.67;;;;;27.73;52.71;99832.53;6189879;22;45412;-86
2023/10/13 15:53:13;;;;;;;;;15.33;14.00;;;;;27.48;52.40;99822.50;6139132;23;48150;-85
2023/10/13 15:55:39;;;;;;;;;15.00;15.00;;;;;27.42;52.34;99792.91;6163955;23;45352;-85
2023/10/13 15:58:08;;;;;;;;;16.00;16.00;;;;;27.48;52.54;99814.31;6166112;23;45330;-85
2023/10/13 16:00:35;;;;;;;;;18.33;16.33;;;;;27.49;52.44;99818.78;6191967;23;45529;-87
2023/10/13 16:03:01;;;;;;;;;15.00;15.00;;;;;27.41;52.51;99816.63;6190264;23;46064;-84
2023/10/13 16:05:34;;;;;;;;;16.33;15.33;;;;;27.59;52.78;99811.72;6187306;22;45310;-84
2023/10/13 16:08:03;;;;;;;;;13.67;13.67;;;;;27.45;52.77;99801.78;6162156;22;45370;-86
2023/10/13 16:10:28;;;;;;;;;17.00;14.67;;;;;27.39;53.05;99806.78;6187812;23;45693;-86
2023/10/13 16:12:57;;;;;;;;;17.00;14.33;;;;;27.55;52.94;99799.22;6161074;22;47632;-87
2023/10/13 16:15:23;;;;;;;;;13.33;13.33;;;;;27.41;53.23;99804.81;6188927;23;45339;-86
2023/10/13 16:17:49;;;;;;;;;15.33;14.33;;;;;27.34;53.14;99788.84;6164078;22;45350;-85
2023/10/13 16:20:17;;;;;;;;;16.33;16.00;;;;;27.32;53.33;99773.56;6166129;22;45408;-86
2023/10/13 16:22:44;;;;;;;;;18.33;16.00;;;;;27.40;53.45;99773.03;6164593;23;47150;-85
2023/10/13 16:25:12;;;;;;;;;17.00;12.67;;;;;27.33;52.98;99758.97;6163201;22;44702;-85
2023/10/13 16:27:42;;;;;;;;;15.33;15.33;;;;;27.32;53.55;99758.06;6191806;23;45304;-84
2023/10/13 16:30:10;;;;;;;;;19.00;16.00;;;;;27.17;53.11;99764.59;6190685;23;45455;-85
2023/10/13 16:32:36;;;;;;;;;21.67;17.00;;;;;27.11;53.51;99771.34;6166483;23;47315;-85
2023/10/13 16:35:05;;;;;;;;;19.00;17.00;;;;;27.26;52.96;99769.41;6189872;22;45346;-86
2023/10/13 16:37:33;;;;;;;;;19.00;16.33;;;;;27.09;53.32;99767.00;6190614;22;45227;-86
2023/10/13 16:40:04;;;;;;;;;21.00;17.00;;;;;27.00;53.27;99762.16;6163952;23;45460;-85
2023/10/13 16:42:34;;;;;;;;;21.67;18.67;;;;;27.00;53.39;99773.09;6190029;23;46303;-84
2023/10/13 16:45:14;;;;;;;;;23.00;18.33;;;;;26.94;54.16;99769.81;6163454;22;44713;-86
2023/10/13 16:47:42;;;;;;;;;22.00;20.33;;;;;27.04;53.57;99760.97;6189501;23;44850;-86